Seattle, Washington
Traffic Map
Current Weather Conditions
Seattle, Washington
Overcast
Overcast
19°
Feels Like: 19°
Wind Chill: 19° Ceiling: 4500
Heat Index: 19° Visibility: 10mi
Dew Point: 14° Wind: 10mph
Humidity: 70% Direction: 170° (S)
Pressure: 29.84in Gusts: 22mph
Raw Report DataKBFI 011953Z 17009G19KT 10SM SCT018 BKN045 OVC075 19/14 A2984 RMK AO2 SLP104 T01940139
Traffic Incident Summary
Active as of:
Severity:
Category:
InformationThere was an issue retrieving the traffic information for this location. Please try a different location or try again shortly.
Advertisements
Track Severe Weather on mobile